sensor_id;sensor_type;location;lat;lon;timestamp;P1;durP1;ratioP1;P2;durP2;ratioP2
65665;SDS011;52365;47.464;18.976;2022-08-01T00:00:19;2.92;;;1.50;;
65665;SDS011;52365;47.464;18.976;2022-08-01T00:00:56;3.20;;;1.65;;
65665;SDS011;52365;47.464;18.976;2022-08-01T00:01:32;1.80;;;1.50;;
65665;SDS011;52365;47.464;18.976;2022-08-01T00:02:08;3.12;;;1.60;;
65665;SDS011;52365;47.464;18.976;2022-08-01T00:02:44;1.80;;;1.30;;
65665;SDS011;52365;47.464;18.976;2022-08-01T00:03:20;1.90;;;1.60;;
65665;SDS011;52365;47.464;18.976;2022-08-01T00:03:56;2.00;;;1.50;;
65665;SDS011;52365;47.464;18.976;2022-08-01T00:04:32;2.40;;;1.37;;
65665;SDS011;52365;47.464;18.976;2022-08-01T00:05:08;2.35;;;1.70;;
65665;SDS011;52365;47.464;18.976;2022-08-01T00:05:47;1.92;;;1.50;;
65665;SDS011;52365;47.464;18.976;2022-08-01T00:06:23;2.50;;;1.40;;
65665;SDS011;52365;47.464;18.976;2022-08-01T00:06:59;3.17;;;1.67;;
65665;SDS011;52365;47.464;18.976;2022-08-01T00:07:36;2.45;;;1.50;;
65665;SDS011;52365;47.464;18.976;2022-08-01T00:08:12;2.95;;;1.70;;
65665;SDS011;52365;47.464;18.976;2022-08-01T00:08:48;3.40;;;1.70;;
65665;SDS011;52365;47.464;18.976;2022-08-01T00:09:24;2.28;;;1.40;;
65665;SDS011;52365;47.464;18.976;2022-08-01T00:10:01;1.70;;;1.40;;
65665;SDS011;52365;47.464;18.976;2022-08-01T00:10:38;2.35;;;1.50;;
65665;SDS011;52365;47.464;18.976;2022-08-01T00:11:15;2.85;;;1.58;;
65665;SDS011;52365;47.464;18.976;2022-08-01T00:11:51;2.53;;;1.55;;
65665;SDS011;52365;47.464;18.976;2022-08-01T00:12:27;2.03;;;1.37;;
65665;SDS011;52365;47.464;18.976;2022-08-01T00:13:03;1.95;;;1.50;;
65665;SDS011;52365;47.464;18.976;2022-08-01T00:13:39;3.12;;;1.52;;
65665;SDS011;52365;47.464;18.976;2022-08-01T00:14:15;2.90;;;1.58;;
65665;SDS011;52365;47.464;18.976;2022-08-01T00:14:51;1.95;;;1.50;;
65665;SDS011;52365;47.464;18.976;2022-08-01T00:15:27;2.80;;;1.42;;
65665;SDS011;52365;47.464;18.976;2022-08-01T00:16:03;1.90;;;1.50;;
65665;SDS011;52365;47.464;18.976;2022-08-01T00:16:39;2.70;;;1.50;;
65665;SDS011;52365;47.464;18.976;2022-08-01T00:17:16;2.50;;;1.50;;
65665;SDS011;52365;47.464;18.976;2022-08-01T00:17:52;2.70;;;1.70;;
65665;SDS011;52365;47.464;18.976;2022-08-01T00:18:28;2.60;;;1.50;;
65665;SDS011;52365;47.464;18.976;2022-08-01T00:19:04;3.15;;;1.58;;
65665;SDS011;52365;47.464;18.976;2022-08-01T00:19:40;2.20;;;1.30;;
65665;SDS011;52365;47.464;18.976;2022-08-01T00:20:16;3.42;;;1.70;;
65665;SDS011;52365;47.464;18.976;2022-08-01T00:20:52;2.75;;;1.60;;
65665;SDS011;52365;47.464;18.976;2022-08-01T00:21:28;2.25;;;1.48;;
65665;SDS011;52365;47.464;18.976;2022-08-01T00:22:04;2.85;;;1.60;;
65665;SDS011;52365;47.464;18.976;2022-08-01T00:22:41;2.15;;;1.60;;
65665;SDS011;52365;47.464;18.976;2022-08-01T00:23:17;2.92;;;1.50;;
65665;SDS011;52365;47.464;18.976;2022-08-01T00:23:53;2.45;;;1.60;;
65665;SDS011;52365;47.464;18.976;2022-08-01T00:24:29;2.83;;;1.55;;
65665;SDS011;52365;47.464;18.976;2022-08-01T00:25:05;2.65;;;1.37;;
65665;SDS011;52365;47.464;18.976;2022-08-01T00:25:42;2.30;;;1.50;;
65665;SDS011;52365;47.464;18.976;2022-08-01T00:26:18;2.50;;;1.60;;
65665;SDS011;52365;47.464;18.976;2022-08-01T00:26:54;2.85;;;1.45;;
65665;SDS011;52365;47.464;18.976;2022-08-01T00:27:30;3.30;;;1.40;;
65665;SDS011;52365;47.464;18.976;2022-08-01T00:28:07;2.62;;;1.40;;
65665;SDS011;52365;47.464;18.976;2022-08-01T00:28:44;1.83;;;1.33;;
65665;SDS011;52365;47.464;18.976;2022-08-01T00:29:20;2.05;;;1.23;;
65665;SDS011;52365;47.464;18.976;2022-08-01T00:29:56;2.58;;;1.58;;
65665;SDS011;52365;47.464;18.976;2022-08-01T00:30:32;2.92;;;1.58;;
65665;SDS011;52365;47.464;18.976;2022-08-01T00:31:08;2.50;;;1.50;;
65665;SDS011;52365;47.464;18.976;2022-08-01T00:31:44;4.10;;;1.55;;
65665;SDS011;52365;47.464;18.976;2022-08-01T00:32:20;1.92;;;1.40;;
65665;SDS011;52365;47.464;18.976;2022-08-01T00:32:56;4.50;;;1.50;;
65665;SDS011;52365;47.464;18.976;2022-08-01T00:33:32;2.00;;;1.60;;
65665;SDS011;52365;47.464;18.976;2022-08-01T00:34:08;2.72;;;1.50;;
65665;SDS011;52365;47.464;18.976;2022-08-01T00:34:44;3.53;;;1.50;;
65665;SDS011;52365;47.464;18.976;2022-08-01T00:35:21;2.95;;;1.40;;
65665;SDS011;52365;47.464;18.976;2022-08-01T00:35:57;4.10;;;1.50;;
65665;SDS011;52365;47.464;18.976;2022-08-01T00:36:33;2.58;;;1.50;;
65665;SDS011;52365;47.464;18.976;2022-08-01T00:37:09;3.80;;;1.45;;
65665;SDS011;52365;47.464;18.976;2022-08-01T00:37:45;2.17;;;1.30;;
65665;SDS011;52365;47.464;18.976;2022-08-01T00:38:21;3.20;;;1.67;;
65665;SDS011;52365;47.464;18.976;2022-08-01T00:38:57;2.87;;;1.60;;
65665;SDS011;52365;47.464;18.976;2022-08-01T00:39:33;2.25;;;1.40;;
65665;SDS011;52365;47.464;18.976;2022-08-01T00:40:09;2.15;;;1.40;;
65665;SDS011;52365;47.464;18.976;2022-08-01T00:40:46;2.37;;;1.40;;
65665;SDS011;52365;47.464;18.976;2022-08-01T00:41:22;2.03;;;1.58;;
65665;SDS011;52365;47.464;18.976;2022-08-01T00:41:58;2.55;;;1.50;;
65665;SDS011;52365;47.464;18.976;2022-08-01T00:42:35;2.87;;;1.50;;
65665;SDS011;52365;47.464;18.976;2022-08-01T00:43:11;2.28;;;1.50;;
65665;SDS011;52365;47.464;18.976;2022-08-01T00:43:47;3.35;;;1.45;;
65665;SDS011;52365;47.464;18.976;2022-08-01T00:44:23;3.05;;;1.40;;
65665;SDS011;52365;47.464;18.976;2022-08-01T00:44:59;2.35;;;1.40;;
65665;SDS011;52365;47.464;18.976;2022-08-01T00:45:35;1.60;;;1.30;;
65665;SDS011;52365;47.464;18.976;2022-08-01T00:46:11;2.30;;;1.30;;
65665;SDS011;52365;47.464;18.976;2022-08-01T00:46:47;2.00;;;1.30;;
65665;SDS011;52365;47.464;18.976;2022-08-01T00:47:23;1.73;;;1.20;;
65665;SDS011;52365;47.464;18.976;2022-08-01T00:47:59;3.10;;;1.30;;
65665;SDS011;52365;47.464;18.976;2022-08-01T00:48:36;1.87;;;1.30;;
65665;SDS011;52365;47.464;18.976;2022-08-01T00:49:12;2.00;;;1.30;;
65665;SDS011;52365;47.464;18.976;2022-08-01T00:49:48;2.42;;;1.30;;
65665;SDS011;52365;47.464;18.976;2022-08-01T00:50:24;2.40;;;1.30;;
65665;SDS011;52365;47.464;18.976;2022-08-01T00:51:00;1.70;;;1.30;;
65665;SDS011;52365;47.464;18.976;2022-08-01T00:51:38;3.65;;;1.42;;
65665;SDS011;52365;47.464;18.976;2022-08-01T00:52:14;3.00;;;1.30;;
65665;SDS011;52365;47.464;18.976;2022-08-01T00:52:50;1.60;;;1.20;;
65665;SDS011;52365;47.464;18.976;2022-08-01T00:53:27;2.30;;;1.30;;
65665;SDS011;52365;47.464;18.976;2022-08-01T00:54:03;3.33;;;1.30;;
65665;SDS011;52365;47.464;18.976;2022-08-01T00:54:39;2.35;;;1.45;;
65665;SDS011;52365;47.464;18.976;2022-08-01T00:55:15;2.95;;;1.45;;
65665;SDS011;52365;47.464;18.976;2022-08-01T00:55:53;2.75;;;1.45;;
65665;SDS011;52365;47.464;18.976;2022-08-01T00:56:30;2.17;;;1.40;;
65665;SDS011;52365;47.464;18.976;2022-08-01T00:57:06;1.92;;;1.20;;
65665;SDS011;52365;47.464;18.976;2022-08-01T00:57:42;2.00;;;1.30;;
65665;SDS011;52365;47.464;18.976;2022-08-01T00:58:19;2.05;;;1.30;;
65665;SDS011;52365;47.464;18.976;2022-08-01T00:58:55;3.25;;;1.58;;
65665;SDS011;52365;47.464;18.976;2022-08-01T00:59:32;2.47;;;1.50;;
65665;SDS011;52365;47.464;18.976;2022-08-01T01:00:10;2.78;;;1.40;;
65665;SDS011;52365;47.464;18.976;2022-08-01T01:00:46;1.60;;;1.23;;
65665;SDS011;52365;47.464;18.976;2022-08-01T01:01:22;3.90;;;1.62;;
65665;SDS011;52365;47.464;18.976;2022-08-01T01:01:59;2.40;;;1.40;;
65665;SDS011;52365;47.464;18.976;2022-08-01T01:02:35;2.42;;;1.40;;
65665;SDS011;52365;47.464;18.976;2022-08-01T01:03:11;2.40;;;1.50;;
65665;SDS011;52365;47.464;18.976;2022-08-01T01:03:48;1.92;;;1.40;;
65665;SDS011;52365;47.464;18.976;2022-08-01T01:04:25;2.37;;;1.30;;
65665;SDS011;52365;47.464;18.976;2022-08-01T01:05:01;1.92;;;1.20;;
65665;SDS011;52365;47.464;18.976;2022-08-01T01:08:19;2.45;;;1.30;;
65665;SDS011;52365;47.464;18.976;2022-08-01T01:11:07;2.12;;;1.37;;
65665;SDS011;52365;47.464;18.976;2022-08-01T01:12:02;2.15;;;1.40;;
65665;SDS011;52365;47.464;18.976;2022-08-01T01:12:53;2.10;;;1.42;;
65665;SDS011;52365;47.464;18.976;2022-08-01T01:14:13;2.17;;;1.45;;
65665;SDS011;52365;47.464;18.976;2022-08-01T01:15:42;2.90;;;1.42;;
65665;SDS011;52365;47.464;18.976;2022-08-01T01:16:21;3.20;;;1.37;;
65665;SDS011;52365;47.464;18.976;2022-08-01T01:16:59;3.33;;;1.23;;
65665;SDS011;52365;47.464;18.976;2022-08-01T01:17:57;2.78;;;1.60;;
65665;SDS011;52365;47.464;18.976;2022-08-01T01:18:45;2.10;;;1.30;;
65665;SDS011;52365;47.464;18.976;2022-08-01T01:19:24;1.80;;;1.30;;
65665;SDS011;52365;47.464;18.976;2022-08-01T01:20:06;2.23;;;1.40;;
65665;SDS011;52365;47.464;18.976;2022-08-01T01:20:44;2.90;;;1.20;;
65665;SDS011;52365;47.464;18.976;2022-08-01T01:21:44;3.20;;;1.33;;
65665;SDS011;52365;47.464;18.976;2022-08-01T01:22:44;2.28;;;1.35;;
65665;SDS011;52365;47.464;18.976;2022-08-01T01:23:39;2.90;;;1.40;;
65665;SDS011;52365;47.464;18.976;2022-08-01T01:29:57;5.50;;;1.30;;
65665;SDS011;52365;47.464;18.976;2022-08-01T01:30:36;2.10;;;1.40;;
65665;SDS011;52365;47.464;18.976;2022-08-01T01:31:14;2.90;;;1.27;;
65665;SDS011;52365;47.464;18.976;2022-08-01T01:32:04;2.90;;;1.40;;
65665;SDS011;52365;47.464;18.976;2022-08-01T01:32:46;1.98;;;1.30;;
65665;SDS011;52365;47.464;18.976;2022-08-01T01:33:26;3.60;;;1.52;;
65665;SDS011;52365;47.464;18.976;2022-08-01T01:34:07;2.50;;;1.58;;
65665;SDS011;52365;47.464;18.976;2022-08-01T01:34:47;2.22;;;1.37;;
65665;SDS011;52365;47.464;18.976;2022-08-01T01:35:27;2.15;;;1.27;;
65665;SDS011;52365;47.464;18.976;2022-08-01T01:36:08;1.87;;;1.30;;
65665;SDS011;52365;47.464;18.976;2022-08-01T01:36:45;2.40;;;1.40;;
65665;SDS011;52365;47.464;18.976;2022-08-01T01:37:24;1.98;;;1.37;;
65665;SDS011;52365;47.464;18.976;2022-08-01T01:38:07;2.00;;;1.30;;
65665;SDS011;52365;47.464;18.976;2022-08-01T01:38:49;2.42;;;1.30;;
65665;SDS011;52365;47.464;18.976;2022-08-01T01:39:26;2.00;;;1.37;;
65665;SDS011;52365;47.464;18.976;2022-08-01T01:40:05;2.55;;;1.25;;
65665;SDS011;52365;47.464;18.976;2022-08-01T01:40:43;3.35;;;1.50;;
65665;SDS011;52365;47.464;18.976;2022-08-01T01:41:20;2.95;;;1.40;;
65665;SDS011;52365;47.464;18.976;2022-08-01T01:41:57;2.33;;;1.30;;
65665;SDS011;52365;47.464;18.976;2022-08-01T01:42:35;1.60;;;1.27;;
65665;SDS011;52365;47.464;18.976;2022-08-01T01:43:12;2.67;;;1.35;;
65665;SDS011;52365;47.464;18.976;2022-08-01T01:43:51;2.55;;;1.40;;
65665;SDS011;52365;47.464;18.976;2022-08-01T01:44:28;2.22;;;1.35;;
65665;SDS011;52365;47.464;18.976;2022-08-01T01:45:05;2.85;;;1.40;;
65665;SDS011;52365;47.464;18.976;2022-08-01T01:45:43;3.85;;;1.55;;
65665;SDS011;52365;47.464;18.976;2022-08-01T01:46:24;1.70;;;1.27;;
65665;SDS011;52365;47.464;18.976;2022-08-01T01:47:02;2.33;;;1.27;;
65665;SDS011;52365;47.464;18.976;2022-08-01T01:47:40;2.80;;;1.40;;
65665;SDS011;52365;47.464;18.976;2022-08-01T01:48:18;2.50;;;1.30;;
65665;SDS011;52365;47.464;18.976;2022-08-01T01:48:56;2.87;;;1.45;;
65665;SDS011;52365;47.464;18.976;2022-08-01T01:49:34;1.90;;;1.30;;
65665;SDS011;52365;47.464;18.976;2022-08-01T01:50:10;2.42;;;1.40;;
65665;SDS011;52365;47.464;18.976;2022-08-01T01:50:48;3.50;;;1.50;;
65665;SDS011;52365;47.464;18.976;2022-08-01T01:51:25;3.47;;;1.50;;
65665;SDS011;52365;47.464;18.976;2022-08-01T01:52:04;3.22;;;1.48;;
65665;SDS011;52365;47.464;18.976;2022-08-01T01:52:42;1.92;;;1.40;;
65665;SDS011;52365;47.464;18.976;2022-08-01T01:53:21;2.33;;;1.35;;
65665;SDS011;52365;47.464;18.976;2022-08-01T01:53:58;3.22;;;1.30;;
65665;SDS011;52365;47.464;18.976;2022-08-01T01:54:37;3.55;;;1.35;;
65665;SDS011;52365;47.464;18.976;2022-08-01T01:55:18;2.85;;;1.50;;
65665;SDS011;52365;47.464;18.976;2022-08-01T01:55:57;1.98;;;1.40;;
65665;SDS011;52365;47.464;18.976;2022-08-01T01:56:36;2.08;;;1.40;;
65665;SDS011;52365;47.464;18.976;2022-08-01T01:57:24;1.80;;;1.30;;
65665;SDS011;52365;47.464;18.976;2022-08-01T01:58:01;4.10;;;1.40;;
65665;SDS011;52365;47.464;18.976;2022-08-01T01:58:38;2.65;;;1.33;;
65665;SDS011;52365;47.464;18.976;2022-08-01T01:59:21;2.67;;;1.37;;
65665;SDS011;52365;47.464;18.976;2022-08-01T02:00:01;3.30;;;1.30;;
65665;SDS011;52365;47.464;18.976;2022-08-01T02:00:37;2.85;;;1.30;;
65665;SDS011;52365;47.464;18.976;2022-08-01T02:01:15;1.70;;;1.30;;
65665;SDS011;52365;47.464;18.976;2022-08-01T02:01:53;2.30;;;1.35;;
65665;SDS011;52365;47.464;18.976;2022-08-01T02:02:30;2.05;;;1.25;;
65665;SDS011;52365;47.464;18.976;2022-08-01T02:03:07;2.50;;;1.25;;
65665;SDS011;52365;47.464;18.976;2022-08-01T02:03:45;1.95;;;1.30;;
65665;SDS011;52365;47.464;18.976;2022-08-01T02:04:22;1.95;;;1.40;;
65665;SDS011;52365;47.464;18.976;2022-08-01T02:05:00;2.95;;;1.20;;
65665;SDS011;52365;47.464;18.976;2022-08-01T02:05:37;2.05;;;1.20;;
65665;SDS011;52365;47.464;18.976;2022-08-01T02:06:15;1.90;;;1.27;;
65665;SDS011;52365;47.464;18.976;2022-08-01T02:06:52;2.90;;;1.37;;
65665;SDS011;52365;47.464;18.976;2022-08-01T02:07:30;1.50;;;1.27;;
65665;SDS011;52365;47.464;18.976;2022-08-01T02:08:08;2.08;;;1.20;;
65665;SDS011;52365;47.464;18.976;2022-08-01T02:08:46;3.50;;;1.50;;
65665;SDS011;52365;47.464;18.976;2022-08-01T02:09:23;2.62;;;1.40;;
65665;SDS011;52365;47.464;18.976;2022-08-01T02:10:03;2.28;;;1.23;;
65665;SDS011;52365;47.464;18.976;2022-08-01T02:10:41;2.70;;;1.30;;
65665;SDS011;52365;47.464;18.976;2022-08-01T02:11:39;2.40;;;1.48;;
65665;SDS011;52365;47.464;18.976;2022-08-01T02:12:17;3.30;;;1.40;;
65665;SDS011;52365;47.464;18.976;2022-08-01T02:12:54;1.90;;;1.35;;
65665;SDS011;52365;47.464;18.976;2022-08-01T02:13:34;3.55;;;1.50;;
65665;SDS011;52365;47.464;18.976;2022-08-01T02:14:13;3.22;;;1.40;;
65665;SDS011;52365;47.464;18.976;2022-08-01T02:14:52;2.53;;;1.50;;
65665;SDS011;52365;47.464;18.976;2022-08-01T02:15:30;2.08;;;1.30;;
65665;SDS011;52365;47.464;18.976;2022-08-01T02:16:08;2.42;;;1.30;;
65665;SDS011;52365;47.464;18.976;2022-08-01T02:16:47;2.15;;;1.40;;
65665;SDS011;52365;47.464;18.976;2022-08-01T02:17:24;2.67;;;1.30;;
65665;SDS011;52365;47.464;18.976;2022-08-01T02:18:02;3.28;;;1.30;;
65665;SDS011;52365;47.464;18.976;2022-08-01T02:18:39;2.10;;;1.45;;
65665;SDS011;52365;47.464;18.976;2022-08-01T02:19:19;2.50;;;1.40;;
65665;SDS011;52365;47.464;18.976;2022-08-01T02:19:56;2.87;;;1.42;;
65665;SDS011;52365;47.464;18.976;2022-08-01T02:20:33;2.40;;;1.37;;
65665;SDS011;52365;47.464;18.976;2022-08-01T02:21:12;2.87;;;1.20;;
65665;SDS011;52365;47.464;18.976;2022-08-01T02:22:00;2.80;;;1.30;;
65665;SDS011;52365;47.464;18.976;2022-08-01T02:22:40;2.10;;;1.30;;
65665;SDS011;52365;47.464;18.976;2022-08-01T02:23:20;2.80;;;1.60;;
65665;SDS011;52365;47.464;18.976;2022-08-01T02:24:03;3.12;;;1.50;;
65665;SDS011;52365;47.464;18.976;2022-08-01T02:24:52;2.28;;;1.40;;
65665;SDS011;52365;47.464;18.976;2022-08-01T02:25:42;1.45;;;1.10;;
65665;SDS011;52365;47.464;18.976;2022-08-01T02:26:29;2.08;;;1.30;;
65665;SDS011;52365;47.464;18.976;2022-08-01T02:27:07;2.78;;;1.27;;
65665;SDS011;52365;47.464;18.976;2022-08-01T02:27:47;1.70;;;1.20;;
65665;SDS011;52365;47.464;18.976;2022-08-01T02:28:31;2.90;;;1.40;;
65665;SDS011;52365;47.464;18.976;2022-08-01T02:29:10;2.90;;;1.30;;
65665;SDS011;52365;47.464;18.976;2022-08-01T02:29:56;2.72;;;1.40;;
65665;SDS011;52365;47.464;18.976;2022-08-01T02:30:36;2.62;;;1.20;;
65665;SDS011;52365;47.464;18.976;2022-08-01T02:31:17;2.17;;;1.40;;
65665;SDS011;52365;47.464;18.976;2022-08-01T02:31:56;2.15;;;1.27;;
65665;SDS011;52365;47.464;18.976;2022-08-01T02:32:56;2.53;;;1.20;;
65665;SDS011;52365;47.464;18.976;2022-08-01T02:33:37;2.28;;;1.30;;
65665;SDS011;52365;47.464;18.976;2022-08-01T02:34:17;2.28;;;1.27;;
65665;SDS011;52365;47.464;18.976;2022-08-01T02:34:55;2.90;;;1.40;;
65665;SDS011;52365;47.464;18.976;2022-08-01T02:35:36;1.80;;;1.20;;
65665;SDS011;52365;47.464;18.976;2022-08-01T02:36:14;2.25;;;1.35;;
65665;SDS011;52365;47.464;18.976;2022-08-01T02:36:52;2.17;;;1.35;;
65665;SDS011;52365;47.464;18.976;2022-08-01T02:37:33;2.62;;;1.45;;
65665;SDS011;52365;47.464;18.976;2022-08-01T02:38:12;3.58;;;1.40;;
65665;SDS011;52365;47.464;18.976;2022-08-01T02:38:50;1.95;;;1.20;;
65665;SDS011;52365;47.464;18.976;2022-08-01T02:39:28;2.78;;;1.30;;
65665;SDS011;52365;47.464;18.976;2022-08-01T02:40:06;2.08;;;1.30;;
65665;SDS011;52365;47.464;18.976;2022-08-01T02:40:45;4.05;;;1.45;;
65665;SDS011;52365;47.464;18.976;2022-08-01T02:41:24;2.67;;;1.40;;
65665;SDS011;52365;47.464;18.976;2022-08-01T02:42:04;2.45;;;1.20;;
65665;SDS011;52365;47.464;18.976;2022-08-01T02:42:44;3.90;;;1.35;;
65665;SDS011;52365;47.464;18.976;2022-08-01T02:43:23;2.40;;;1.20;;
65665;SDS011;52365;47.464;18.976;2022-08-01T02:44:03;2.90;;;1.30;;
65665;SDS011;52365;47.464;18.976;2022-08-01T02:44:42;1.77;;;1.10;;
65665;SDS011;52365;47.464;18.976;2022-08-01T02:45:22;2.10;;;1.30;;
65665;SDS011;52365;47.464;18.976;2022-08-01T02:46:01;2.30;;;1.37;;
65665;SDS011;52365;47.464;18.976;2022-08-01T02:46:50;2.00;;;1.20;;
65665;SDS011;52365;47.464;18.976;2022-08-01T02:47:29;2.13;;;1.20;;
65665;SDS011;52365;47.464;18.976;2022-08-01T02:48:09;3.15;;;1.20;;
65665;SDS011;52365;47.464;18.976;2022-08-01T02:48:50;2.30;;;1.40;;
65665;SDS011;52365;47.464;18.976;2022-08-01T02:49:33;2.78;;;1.42;;
65665;SDS011;52365;47.464;18.976;2022-08-01T02:50:12;2.08;;;1.30;;
65665;SDS011;52365;47.464;18.976;2022-08-01T02:50:50;2.00;;;1.40;;
65665;SDS011;52365;47.464;18.976;2022-08-01T02:51:28;3.35;;;1.50;;
65665;SDS011;52365;47.464;18.976;2022-08-01T02:52:07;2.78;;;1.30;;
65665;SDS011;52365;47.464;18.976;2022-08-01T02:52:46;1.70;;;1.30;;
65665;SDS011;52365;47.464;18.976;2022-08-01T02:53:26;2.72;;;1.60;;
65665;SDS011;52365;47.464;18.976;2022-08-01T02:54:07;2.17;;;1.30;;
65665;SDS011;52365;47.464;18.976;2022-08-01T02:54:45;2.05;;;1.60;;
65665;SDS011;52365;47.464;18.976;2022-08-01T02:55:24;1.60;;;1.20;;
65665;SDS011;52365;47.464;18.976;2022-08-01T02:56:01;2.58;;;1.30;;
65665;SDS011;52365;47.464;18.976;2022-08-01T02:56:40;2.30;;;1.40;;
65665;SDS011;52365;47.464;18.976;2022-08-01T02:57:18;2.33;;;1.30;;
65665;SDS011;52365;47.464;18.976;2022-08-01T02:57:56;4.03;;;1.75;;
65665;SDS011;52365;47.464;18.976;2022-08-01T02:58:35;2.70;;;1.40;;
65665;SDS011;52365;47.464;18.976;2022-08-01T02:59:13;2.25;;;1.27;;
65665;SDS011;52365;47.464;18.976;2022-08-01T02:59:52;1.70;;;1.30;;
65665;SDS011;52365;47.464;18.976;2022-08-01T03:00:30;2.08;;;1.40;;
65665;SDS011;52365;47.464;18.976;2022-08-01T03:01:08;3.37;;;1.40;;
65665;SDS011;52365;47.464;18.976;2022-08-01T03:01:45;3.05;;;1.42;;
65665;SDS011;52365;47.464;18.976;2022-08-01T03:02:23;2.00;;;1.40;;
65665;SDS011;52365;47.464;18.976;2022-08-01T03:03:00;2.35;;;1.40;;
65665;SDS011;52365;47.464;18.976;2022-08-01T03:03:38;2.45;;;1.60;;
65665;SDS011;52365;47.464;18.976;2022-08-01T03:04:16;3.97;;;1.67;;
65665;SDS011;52365;47.464;18.976;2022-08-01T03:04:54;3.25;;;1.40;;
65665;SDS011;52365;47.464;18.976;2022-08-01T03:05:31;2.40;;;1.40;;
65665;SDS011;52365;47.464;18.976;2022-08-01T03:06:08;3.37;;;1.70;;
65665;SDS011;52365;47.464;18.976;2022-08-01T03:06:45;2.40;;;1.60;;
65665;SDS011;52365;47.464;18.976;2022-08-01T03:07:22;2.10;;;1.40;;
65665;SDS011;52365;47.464;18.976;2022-08-01T03:07:59;2.87;;;1.50;;
65665;SDS011;52365;47.464;18.976;2022-08-01T03:08:37;3.28;;;1.60;;
65665;SDS011;52365;47.464;18.976;2022-08-01T03:09:14;2.75;;;1.45;;
65665;SDS011;52365;47.464;18.976;2022-08-01T03:09:51;2.00;;;1.50;;
65665;SDS011;52365;47.464;18.976;2022-08-01T03:10:28;2.75;;;1.50;;
65665;SDS011;52365;47.464;18.976;2022-08-01T03:11:06;2.37;;;1.55;;
65665;SDS011;52365;47.464;18.976;2022-08-01T03:11:44;2.40;;;1.40;;
65665;SDS011;52365;47.464;18.976;2022-08-01T03:12:22;2.15;;;1.23;;
65665;SDS011;52365;47.464;18.976;2022-08-01T03:13:03;3.22;;;1.48;;
65665;SDS011;52365;47.464;18.976;2022-08-01T03:13:41;2.08;;;1.40;;
65665;SDS011;52365;47.464;18.976;2022-08-01T03:14:20;1.92;;;1.30;;
65665;SDS011;52365;47.464;18.976;2022-08-01T03:14:59;3.40;;;1.42;;
65665;SDS011;52365;47.464;18.976;2022-08-01T03:15:38;4.60;;;1.60;;
65665;SDS011;52365;47.464;18.976;2022-08-01T03:16:16;1.75;;;1.37;;
65665;SDS011;52365;47.464;18.976;2022-08-01T03:16:53;4.03;;;1.70;;
65665;SDS011;52365;47.464;18.976;2022-08-01T03:17:31;2.20;;;1.50;;
65665;SDS011;52365;47.464;18.976;2022-08-01T03:18:09;3.00;;;1.60;;
65665;SDS011;52365;47.464;18.976;2022-08-01T03:18:47;2.95;;;1.50;;
65665;SDS011;52365;47.464;18.976;2022-08-01T03:19:25;2.45;;;1.55;;
65665;SDS011;52365;47.464;18.976;2022-08-01T03:20:03;3.80;;;1.45;;
65665;SDS011;52365;47.464;18.976;2022-08-01T03:20:41;3.87;;;1.40;;
65665;SDS011;52365;47.464;18.976;2022-08-01T03:21:20;3.62;;;1.30;;
65665;SDS011;52365;47.464;18.976;2022-08-01T03:21:58;2.30;;;1.35;;
65665;SDS011;52365;47.464;18.976;2022-08-01T03:22:39;2.53;;;1.40;;
65665;SDS011;52365;47.464;18.976;2022-08-01T03:23:18;3.28;;;1.40;;
65665;SDS011;52365;47.464;18.976;2022-08-01T03:23:57;3.78;;;1.45;;
65665;SDS011;52365;47.464;18.976;2022-08-01T03:24:35;3.03;;;1.37;;
65665;SDS011;52365;47.464;18.976;2022-08-01T03:25:15;2.65;;;1.52;;
65665;SDS011;52365;47.464;18.976;2022-08-01T03:25:51;2.72;;;1.48;;
65665;SDS011;52365;47.464;18.976;2022-08-01T03:26:29;2.80;;;1.40;;
65665;SDS011;52365;47.464;18.976;2022-08-01T03:27:07;1.85;;;1.30;;
65665;SDS011;52365;47.464;18.976;2022-08-01T03:27:45;4.15;;;1.33;;
65665;SDS011;52365;47.464;18.976;2022-08-01T03:28:27;4.82;;;1.50;;
65665;SDS011;52365;47.464;18.976;2022-08-01T03:29:06;2.60;;;1.35;;
65665;SDS011;52365;47.464;18.976;2022-08-01T03:29:47;2.42;;;1.30;;
65665;SDS011;52365;47.464;18.976;2022-08-01T03:30:25;2.62;;;1.33;;
65665;SDS011;52365;47.464;18.976;2022-08-01T03:31:02;1.70;;;1.30;;
65665;SDS011;52365;47.464;18.976;2022-08-01T03:31:39;2.20;;;1.30;;
65665;SDS011;52365;47.464;18.976;2022-08-01T03:32:19;1.73;;;1.20;;
65665;SDS011;52365;47.464;18.976;2022-08-01T03:32:57;1.70;;;1.20;;
65665;SDS011;52365;47.464;18.976;2022-08-01T03:33:33;2.83;;;1.30;;
65665;SDS011;52365;47.464;18.976;2022-08-01T03:34:09;2.40;;;1.30;;
65665;SDS011;52365;47.464;18.976;2022-08-01T03:34:46;2.72;;;1.35;;
65665;SDS011;52365;47.464;18.976;2022-08-01T03:35:23;3.10;;;1.37;;
65665;SDS011;52365;47.464;18.976;2022-08-01T03:36:05;2.28;;;1.33;;
65665;SDS011;52365;47.464;18.976;2022-08-01T03:36:47;1.95;;;1.30;;
65665;SDS011;52365;47.464;18.976;2022-08-01T03:37:29;2.58;;;1.23;;
65665;SDS011;52365;47.464;18.976;2022-08-01T03:38:17;3.72;;;1.48;;
65665;SDS011;52365;47.464;18.976;2022-08-01T03:38:55;5.10;;;1.62;;
65665;SDS011;52365;47.464;18.976;2022-08-01T03:39:37;4.40;;;1.70;;
65665;SDS011;52365;47.464;18.976;2022-08-01T03:40:41;2.70;;;1.80;;
65665;SDS011;52365;47.464;18.976;2022-08-01T03:41:19;3.87;;;1.92;;
65665;SDS011;52365;47.464;18.976;2022-08-01T03:41:59;3.03;;;1.77;;
65665;SDS011;52365;47.464;18.976;2022-08-01T03:42:47;2.42;;;1.70;;
65665;SDS011;52365;47.464;18.976;2022-08-01T03:43:48;3.40;;;1.90;;
65665;SDS011;52365;47.464;18.976;2022-08-01T03:44:31;4.18;;;2.00;;
65665;SDS011;52365;47.464;18.976;2022-08-01T03:45:14;4.25;;;1.80;;
65665;SDS011;52365;47.464;18.976;2022-08-01T03:45:57;4.40;;;1.90;;
65665;SDS011;52365;47.464;18.976;2022-08-01T03:46:42;2.97;;;1.87;;
65665;SDS011;52365;47.464;18.976;2022-08-01T03:47:23;4.72;;;1.90;;
65665;SDS011;52365;47.464;18.976;2022-08-01T03:48:09;3.65;;;1.92;;
65665;SDS011;52365;47.464;18.976;2022-08-01T03:48:49;2.55;;;1.77;;
65665;SDS011;52365;47.464;18.976;2022-08-01T03:49:32;3.78;;;1.83;;
65665;SDS011;52365;47.464;18.976;2022-08-01T03:50:11;2.95;;;1.85;;
65665;SDS011;52365;47.464;18.976;2022-08-01T03:50:50;4.12;;;1.92;;
65665;SDS011;52365;47.464;18.976;2022-08-01T03:51:27;4.62;;;1.90;;
65665;SDS011;52365;47.464;18.976;2022-08-01T03:52:07;2.85;;;1.87;;
65665;SDS011;52365;47.464;18.976;2022-08-01T03:52:45;3.12;;;2.22;;
65665;SDS011;52365;47.464;18.976;2022-08-01T03:53:23;5.28;;;2.00;;
65665;SDS011;52365;47.464;18.976;2022-08-01T03:54:01;4.07;;;1.83;;
65665;SDS011;52365;47.464;18.976;2022-08-01T03:54:40;2.40;;;1.90;;
65665;SDS011;52365;47.464;18.976;2022-08-01T03:55:22;5.55;;;1.80;;
65665;SDS011;52365;47.464;18.976;2022-08-01T03:56:00;3.15;;;1.90;;
65665;SDS011;52365;47.464;18.976;2022-08-01T03:56:37;3.15;;;1.90;;
65665;SDS011;52365;47.464;18.976;2022-08-01T03:57:15;3.90;;;1.90;;
65665;SDS011;52365;47.464;18.976;2022-08-01T03:57:52;4.03;;;2.00;;
65665;SDS011;52365;47.464;18.976;2022-08-01T03:58:29;3.17;;;1.90;;
65665;SDS011;52365;47.464;18.976;2022-08-01T03:59:06;3.40;;;1.87;;
65665;SDS011;52365;47.464;18.976;2022-08-01T03:59:42;4.03;;;2.00;;
65665;SDS011;52365;47.464;18.976;2022-08-01T04:00:20;3.03;;;1.90;;
65665;SDS011;52365;47.464;18.976;2022-08-01T04:00:56;3.55;;;1.95;;
65665;SDS011;52365;47.464;18.976;2022-08-01T04:01:33;4.30;;;2.00;;
65665;SDS011;52365;47.464;18.976;2022-08-01T04:02:11;2.33;;;1.87;;